This is the latest recevied weather packets stored in our database for station/object AE7VB. If no packets are shown the sender has not sent any weather packets the latest 10 day(s).
| Time | Temp. | Humidity | Pressure | Rain* | Wind** | Luminosity | Snow |
|---|---|---|---|---|---|---|---|
| 1777232725 | 9.44° C | 46% | 1011.8 hPa | 0 mm | - | - | - |
| 1777226080 | 10° C | 55% | 1011.9 hPa | 0 mm | - | - | - |
| 1777220069 | 6.67° C | 68% | 1011.8 hPa | 0 mm | - | - | - |
| 1777217602 | 5.56° C | 70% | 1012 hPa | 0 mm | - | - | - |
| 1777216369 | 5° C | 72% | 1012 hPa | 0 mm | - | - | - |
| 1777213934 | 3.89° C | 74% | 1012 hPa | 0 mm | - | - | - |
| 1777213333 | 3.89° C | 76% | 1012 hPa | 0 mm | - | - | - |
| 1777206596 | 1.11° C | 80% | 1011 hPa | 0 mm | - | - | - |
| 1777205996 | 1.11° C | 79% | 1011.3 hPa | 0 mm | - | - | - |
| 1777202991 | 2.22° C | 75% | 1011.3 hPa | 0 mm | - | - | - |
| 1777201758 | 1.67° C | 79% | 1011.2 hPa | 0 mm | - | - | - |
| 1777201157 | 1.67° C | 80% | 1011.5 hPa | 0 mm | - | - | - |
| 1777195748 | 0.56° C | 80% | 1011.3 hPa | 0 mm | - | - | - |
| 1777195147 | 0.56° C | 80% | 1011.3 hPa | 0 mm | - | - | - |
| 1777190307 | 0.56° C | 79% | 1011.6 hPa | 0 mm | - | - | - |
| 1777186670 | 1.11° C | 77% | 1011.9 hPa | 0 mm | - | - | - |
| 1777186070 | 1.11° C | 76% | 1011.9 hPa | 0 mm | - | - | - |
| 1777185469 | 1.11° C | 76% | 1011.9 hPa | 0 mm | - | - | - |
| 1777183065 | 1.67° C | 75% | 1012.4 hPa | 0 mm | - | - | - |
| 1777173355 | 5.56° C | 62% | 1012.4 hPa | 0 mm | - | - | - |
| 1777171552 | 7.78° C | 58% | 1012.8 hPa | 0 mm | - | - | - |
| 1777170351 | 8.33° C | 52% | 1012.9 hPa | 0 mm | - | - | - |
| 1777163645 | 11.11° C | 40% | 1012.9 hPa | 0 mm | - | - | - |
| 1777162951 | 10.56° C | 40% | 1012.8 hPa | 0 mm | - | - | - |
| 1777162287 | 10.56° C | 39% | 1013.2 hPa | 0 mm | - | - | - |
* Rain latest hour (hover to see other rain measurements)
** Current wind speed in m/s (hover to see current wind gust speed)